地図

経路データ

SID SEASON NUMBER BASIN SUBBASIN NAME ISO_TIME NATURE LAT LON WMO_WIND WMO_PRES WMO_AGENCY TRACK_TYPE DIST2LAND LANDFALL IFLAG USA_AGENCY USA_ATCF_ID USA_LAT USA_LON USA_RECORD USA_STATUS USA_WIND USA_PRES USA_SSHS USA_R34_NE USA_R34_SE USA_R34_SW USA_R34_NW USA_R50_NE USA_R50_SE USA_R50_SW USA_R50_NW USA_R64_NE USA_R64_SE USA_R64_SW USA_R64_NW USA_POCI USA_ROCI USA_RMW USA_EYE TOKYO_LAT TOKYO_LON TOKYO_GRADE TOKYO_WIND TOKYO_PRES TOKYO_R50_DIR TOKYO_R50_LONG TOKYO_R50_SHORT TOKYO_R30_DIR TOKYO_R30_LONG TOKYO_R30_SHORT TOKYO_LAND CMA_LAT CMA_LON CMA_CAT CMA_WIND CMA_PRES HKO_LAT HKO_LON HKO_CAT HKO_WIND HKO_PRES NEWDELHI_LAT NEWDELHI_LON NEWDELHI_GRADE NEWDELHI_WIND NEWDELHI_PRES NEWDELHI_CI NEWDELHI_DP NEWDELHI_POCI REUNION_LAT REUNION_LON REUNION_TYPE REUNION_WIND REUNION_PRES REUNION_TNUM REUNION_CI REUNION_RMW REUNION_R34_NE REUNION_R34_SE REUNION_R34_SW REUNION_R34_NW REUNION_R50_NE REUNION_R50_SE REUNION_R50_SW REUNION_R50_NW REUNION_R64_NE REUNION_R64_SE REUNION_R64_SW REUNION_R64_NW BOM_LAT BOM_LON BOM_TYPE BOM_WIND BOM_PRES BOM_TNUM BOM_CI BOM_RMW BOM_R34_NE BOM_R34_SE BOM_R34_SW BOM_R34_NW BOM_R50_NE BOM_R50_SE BOM_R50_SW BOM_R50_NW BOM_R64_NE BOM_R64_SE BOM_R64_SW BOM_R64_NW BOM_ROCI BOM_POCI BOM_EYE BOM_POS_METHOD BOM_PRES_METHOD NADI_LAT NADI_LON NADI_CAT NADI_WIND NADI_PRES WELLINGTON_LAT WELLINGTON_LON WELLINGTON_WIND WELLINGTON_PRES DS824_LAT DS824_LON DS824_STAGE DS824_WIND DS824_PRES TD9636_LAT TD9636_LON TD9636_STAGE TD9636_WIND TD9636_PRES TD9635_LAT TD9635_LON TD9635_WIND TD9635_PRES TD9635_ROCI NEUMANN_LAT NEUMANN_LON NEUMANN_CLASS NEUMANN_WIND NEUMANN_PRES MLC_LAT MLC_LON MLC_CLASS MLC_WIND MLC_PRES USA_GUST BOM_GUST BOM_GUST_PER REUNION_GUST REUNION_GUST_PER USA_SEAHGT USA_SEARAD_NE USA_SEARAD_SE USA_SEARAD_SW USA_SEARAD_NW STORM_SPEED STORM_DIR
1893080S10061 1893 10 SI MM NOT_NAMED 1893-03-20 18:00:00 NR -9.80000 60.6000 main 1194 1183 __________O___ -1 -9.80000 60.6000 7 2 165
1893080S10061 1893 10 SI MM NOT_NAMED 1893-03-20 21:00:00 NR -9.87656 60.6203 main 1183 1172 __________P___ -1 -9.87656 60.6203 7 2 167
1893080S10061 1893 10 SI MM NOT_NAMED 1893-03-21 00:00:00 NR -9.97250 60.6425 main 1172 1164 __________P___ -1 -9.97250 60.6425 7 2 170
1893080S10061 1893 10 SI MM NOT_NAMED 1893-03-21 03:00:00 NR -10.1072 60.6684 main 1164 1153 __________P___ -1 -10.1072 60.6684 7 2 166
1893080S10061 1893 10 SI MM NOT_NAMED 1893-03-21 06:00:00 NR -10.2000 60.7000 reunion main 1153 1143 _____O____O___ -1 -9.80000 60.7000 99 9.90000 -10.3000 60.7000 7 2 167
1893080S10061 1893 10 SI MM NOT_NAMED 1893-03-21 09:00:00 NR -10.3214 60.7281 main 1143 1132 _____P____P___ -1 -9.83742 60.7067 99 -10.5634 60.7388 7 3 167
1893080S10061 1893 10 SI MM NOT_NAMED 1893-03-21 12:00:00 NR -10.4527 60.7546 main 1124 1113 _____P____P___ -1 -9.87960 60.7139 99 -10.8825 60.7850 7 3 167
1893080S10061 1893 10 SI MM NOT_NAMED 1893-03-21 15:00:00 NR -10.5833 60.7805 main 1113 1092 _____P____P___ -1 -9.93133 60.7222 99 -11.2353 60.8388 7 4 172
1893080S10061 1893 10 SI MM NOT_NAMED 1893-03-21 18:00:00 NR -10.7987 60.8161 main 1092 1071 _____P____O___ -1 -9.99736 60.7322 99 -11.6000 60.9000 7 4 170
1893080S10061 1893 10 SI MM NOT_NAMED 1893-03-21 21:00:00 NR -11.0045 60.8562 main 1074 1053 _____P____P___ -1 -10.0825 60.7445 99 -11.9266 60.9679 7 4 170
1893080S10061 1893 10 SI MM NOT_NAMED 1893-03-22 00:00:00 NR -11.2270 60.9010 main 1053 1021 _____P____P___ -1 -10.1914 60.7594 99 -12.2625 61.0426 7 5 170
1893080S10061 1893 10 SI MM NOT_NAMED 1893-03-22 03:00:00 NR -11.4731 60.9494 main 1021 1004 _____P____P___ -1 -10.3290 60.7778 99 -12.6172 61.1210 7 5 169
1893080S10061 1893 10 SI MM NOT_NAMED 1893-03-22 06:00:00 NR -11.7500 61.0000 reunion main 1004 972 _____O____O___ -1 -10.5000 60.8000 99 9.90000 -13.0000 61.2000 7 6 171
1893080S10061 1893 10 SI MM NOT_NAMED 1893-03-22 09:00:00 NR -12.0645 61.0449 main 962 934 _____P____P___ -1 -10.7079 60.8267 99 -13.4172 61.2771 7 7 172
1893080S10061 1893 10 SI MM NOT_NAMED 1893-03-22 12:00:00 NR -12.4106 61.0932 main 934 893 _____P____P___ -1 -10.9511 60.8586 99 -13.8625 61.3522 7 7 172
1893080S10061 1893 10 SI MM NOT_NAMED 1893-03-22 15:00:00 NR -12.7804 61.1501 main 898 857 _____P____P___ -1 -11.2270 60.8964 99 -14.3266 61.4263 7 8 171
1893080S10061 1893 10 SI MM NOT_NAMED 1893-03-22 18:00:00 NR -13.1664 61.2204 main 857 847 _____P____O___ -1 -11.5328 60.9409 99 -14.8000 61.5000 7 5 169
1893080S10061 1893 10 SI MM NOT_NAMED 1893-03-22 21:00:00 NR -13.3109 61.2601 main 852 842 _____P________ -1 -11.8657 60.9927 99 7 2 161
1893080S10061 1893 10 SI MM NOT_NAMED 1893-03-23 00:00:00 NR -13.3745 61.2869 main 842 842 _____P________ -1 -12.2230 61.0527 99 7 0 0
1893080S10061 1893 10 SI MM NOT_NAMED 1893-03-23 03:00:00 NR -13.3073 61.2805 main 852 852 _____P________ -1 -12.6020 61.1215 99 7 4 346
1893080S10061 1893 10 SI MM NOT_NAMED 1893-03-23 06:00:00 NR -13.0000 61.2000 reunion main 877 842 _____O________ -1 -13.0000 61.2000 99 9.90000 1 0
1893080S10061 1893 10 SI MM NOT_NAMED 1893-03-23 09:00:00 NR -13.3912 61.2708 main 842 802 _____P________ -1 -13.3912 61.2708 99 8 169
1893080S10061 1893 10 SI MM NOT_NAMED 1893-03-23 12:00:00 NR -13.8047 61.3499 main 802 768 _____P________ -1 -13.8047 61.3499 99 9 169
1893080S10061 1893 10 SI MM NOT_NAMED 1893-03-23 15:00:00 NR -14.2376 61.4390 main 768 726 _____P________ -1 -14.2376 61.4390 99 9 168
1893080S10061 1893 10 SI MM NOT_NAMED 1893-03-23 18:00:00 NR -14.6874 61.5400 main 726 695 _____P________ -1 -14.6874 61.5400 99 9 167
1893080S10061 1893 10 SI MM NOT_NAMED 1893-03-23 21:00:00 NR -15.1513 61.6547 main 692 664 _____P________ -1 -15.1513 61.6547 99 10 166
1893080S10061 1893 10 SI MM NOT_NAMED 1893-03-24 00:00:00 NR -15.6264 61.7850 main 664 630 _____P________ -1 -15.6264 61.7850 99 10 164
1893080S10061 1893 10 SI MM NOT_NAMED 1893-03-24 03:00:00 NR -16.1103 61.9328 main 630 607 _____P________ -1 -16.1103 61.9328 99 10 163
1893080S10061 1893 10 SI MM NOT_NAMED 1893-03-24 06:00:00 NR -16.6000 62.1000 reunion main 607 587 _____O________ -1 -16.6000 62.1000 99 9.90000 10 162
1893080S10061 1893 10 SI MM NOT_NAMED 1893-03-24 09:00:00 NR -17.0599 62.2536 main 589 573 _____P________ -1 -17.0599 62.2536 99 10 162
1893080S10061 1893 10 SI MM NOT_NAMED 1893-03-24 12:00:00 NR -17.5255 62.4236 main 573 566 _____P________ -1 -17.5255 62.4236 99 10 160
1893080S10061 1893 10 SI MM NOT_NAMED 1893-03-24 15:00:00 NR -17.9998 62.6136 main 566 560 _____P________ -1 -17.9998 62.6136 99 10 158
1893080S10061 1893 10 SI MM NOT_NAMED 1893-03-24 18:00:00 NR -18.4855 62.8274 main 561 561 _____P________ -1 -18.4855 62.8274 99 11 156
1893080S10061 1893 10 SI MM NOT_NAMED 1893-03-24 21:00:00 NR -18.9855 63.0690 main 573 570 _____P________ -1 -18.9855 63.0690 99 11 154
1893080S10061 1893 10 SI MM NOT_NAMED 1893-03-25 00:00:00 NR -19.5027 63.3422 main 581 581 _____P________ -1 -19.5027 63.3422 99 12 153
1893080S10061 1893 10 SI MM NOT_NAMED 1893-03-25 03:00:00 NR -20.0399 63.6511 main 616 615 _____P________ -1 -20.0399 63.6511 99 13 151
1893080S10061 1893 10 SI MM NOT_NAMED 1893-03-25 06:00:00 NR -20.6000 64.0000 reunion main 646 646 _____O________ -1 -20.6000 64.0000 99 9.90000 15 149
1893080S10061 1893 10 SI MM NOT_NAMED 1893-03-25 09:00:00 NR -21.2711 64.4561 main 705 705 _____P________ -1 -21.2711 64.4561 99 17 147
1893080S10061 1893 10 SI MM NOT_NAMED 1893-03-25 12:00:00 NR -21.9757 64.9651 main 770 770 _____P________ -1 -21.9757 64.9651 99 17 146
1893080S10061 1893 10 SI MM NOT_NAMED 1893-03-25 15:00:00 NR -22.6921 65.5078 main 840 840 _____P________ -1 -22.6921 65.5078 99 18 145
1893080S10061 1893 10 SI MM NOT_NAMED 1893-03-25 18:00:00 NR -23.3985 66.0642 main 923 923 _____P________ -1 -23.3985 66.0642 99 17 144
1893080S10061 1893 10 SI MM NOT_NAMED 1893-03-25 21:00:00 NR -24.0735 66.6136 main 999 999 _____P________ -1 -24.0735 66.6136 99 16 143
1893080S10061 1893 10 SI MM NOT_NAMED 1893-03-26 00:00:00 NR -24.6959 67.1343 main 1072 1072 _____P________ -1 -24.6959 67.1343 99 15 142
1893080S10061 1893 10 SI MM NOT_NAMED 1893-03-26 03:00:00 NR -25.2449 67.6041 main 1141 1141 _____P________ -1 -25.2449 67.6041 99 13 142
1893080S10061 1893 10 SI MM NOT_NAMED 1893-03-26 06:00:00 NR -25.7000 68.0000 reunion main 1202 1202 _____O________ -1 -25.7000 68.0000 99 9.90000 10 142
1893080S10061 1893 10 SI MM NOT_NAMED 1893-03-26 09:00:00 NR -26.0469 68.3046 main 1244 1244 _____P________ -1 -26.0469 68.3046 99 8 142
1893080S10061 1893 10 SI MM NOT_NAMED 1893-03-26 12:00:00 NR -26.2946 68.5232 main 1277 1277 _____P________ -1 -26.2946 68.5232 99 5 141
1893080S10061 1893 10 SI MM NOT_NAMED 1893-03-26 15:00:00 NR -26.4576 68.6674 main 1305 1305 _____P________ -1 -26.4576 68.6674 99 3 142
1893080S10061 1893 10 SI MM NOT_NAMED 1893-03-26 18:00:00 NR -26.5503 68.7492 main 1310 1310 _____P________ -1 -26.5503 68.7492 99 2 140
1893080S10061 1893 10 SI MM NOT_NAMED 1893-03-26 21:00:00 NR -26.5868 68.7808 main 1319 1319 _____P________ -1 -26.5868 68.7808 99 0 142
1893080S10061 1893 10 SI MM NOT_NAMED 1893-03-27 00:00:00 NR -26.5813 68.7748 main 1319 1310 _____P________ -1 -26.5813 68.7748 99 1 314
1893080S10061 1893 10 SI MM NOT_NAMED 1893-03-27 03:00:00 NR -26.5477 68.7437 main 1305 1305 _____P________ -1 -26.5477 68.7437 99 1 321
1893080S10061 1893 10 SI MM NOT_NAMED 1893-03-27 06:00:00 NR -26.5000 68.7000 reunion main 1305 _____O________ -1 -26.5000 68.7000 99 9.90000 1 328

IBTrACS Databaseについて

本データベースは、米国NOAAが公開する1842年以降の世界の熱帯低気圧のベストトラックデータアーカイブInternational Best Track Archive for Climate Stewardship (IBTrACS)を、ウェブで閲覧しやすい形式に変換したものです。

最終更新日:2021-12-03